Port Alfred, South Africa
Current Conditions -  °F | °C
As of 7:00 AM on Sunday 26 Oct 2014 (Local Time) from FAPE Reporting Station
Clear Clear  
Wind Chill: 63°   Ceiling: Unl
Heat Index: 63°   Visibility: 6mi
Dew Point: 54°   Wind: 18mph
Humidity: 72%   Direction: 60°ENE
Pressure: 30.3"   Gusts: NA
Location:  33.6°S, 26.88°E
Report Text: FAPE 260500Z 06016KT CAVOK 17/12 Q1026 NOSIG
Loading
Personal Weather Stations






























Interactive Weather Map
Tropical Storm Tracking
New forecast layout! Learn more

10-Day Weather Forecast

Advertisements
Track Severe Weather on mobile